sensor_id;sensor_type;location;lat;lon;timestamp;P1;durP1;ratioP1;P2;durP2;ratioP2
4182;SDS011;2105;52.300;9.182;2024-01-15T00:01:41;24.33;;;15.63;;
4182;SDS011;2105;52.300;9.182;2024-01-15T00:04:09;31.17;;;17.20;;
4182;SDS011;2105;52.300;9.182;2024-01-15T00:06:37;27.20;;;17.20;;
4182;SDS011;2105;52.300;9.182;2024-01-15T00:09:04;30.40;;;16.97;;
4182;SDS011;2105;52.300;9.182;2024-01-15T00:11:31;28.57;;;18.60;;
4182;SDS011;2105;52.300;9.182;2024-01-15T00:13:58;30.40;;;17.67;;
4182;SDS011;2105;52.300;9.182;2024-01-15T00:16:25;28.47;;;16.00;;
4182;SDS011;2105;52.300;9.182;2024-01-15T00:18:52;28.00;;;16.93;;
4182;SDS011;2105;52.300;9.182;2024-01-15T00:21:19;27.77;;;16.77;;
4182;SDS011;2105;52.300;9.182;2024-01-15T00:23:47;29.90;;;17.00;;
4182;SDS011;2105;52.300;9.182;2024-01-15T00:26:14;28.17;;;15.47;;
4182;SDS011;2105;52.300;9.182;2024-01-15T00:28:41;29.13;;;15.70;;
4182;SDS011;2105;52.300;9.182;2024-01-15T00:31:08;25.97;;;15.40;;
4182;SDS011;2105;52.300;9.182;2024-01-15T00:33:35;28.87;;;15.97;;
4182;SDS011;2105;52.300;9.182;2024-01-15T00:36:04;27.73;;;15.10;;
4182;SDS011;2105;52.300;9.182;2024-01-15T00:38:31;21.80;;;13.60;;
4182;SDS011;2105;52.300;9.182;2024-01-15T00:40:59;23.07;;;12.80;;
4182;SDS011;2105;52.300;9.182;2024-01-15T00:43:27;27.50;;;12.73;;
4182;SDS011;2105;52.300;9.182;2024-01-15T00:45:53;23.13;;;11.50;;
4182;SDS011;2105;52.300;9.182;2024-01-15T00:48:20;25.63;;;11.20;;
4182;SDS011;2105;52.300;9.182;2024-01-15T00:50:47;16.23;;;9.47;;
4182;SDS011;2105;52.300;9.182;2024-01-15T00:53:14;18.30;;;8.90;;
4182;SDS011;2105;52.300;9.182;2024-01-15T00:55:41;18.53;;;8.60;;
4182;SDS011;2105;52.300;9.182;2024-01-15T00:58:09;15.93;;;8.40;;
4182;SDS011;2105;52.300;9.182;2024-01-15T01:00:36;19.20;;;8.47;;
4182;SDS011;2105;52.300;9.182;2024-01-15T01:03:03;19.47;;;7.60;;
4182;SDS011;2105;52.300;9.182;2024-01-15T01:05:30;13.87;;;7.40;;
4182;SDS011;2105;52.300;9.182;2024-01-15T01:07:56;18.03;;;8.53;;
4182;SDS011;2105;52.300;9.182;2024-01-15T01:10:23;18.33;;;9.10;;
4182;SDS011;2105;52.300;9.182;2024-01-15T01:12:50;18.23;;;10.37;;
4182;SDS011;2105;52.300;9.182;2024-01-15T01:15:18;24.43;;;9.03;;
4182;SDS011;2105;52.300;9.182;2024-01-15T01:17:45;20.70;;;9.20;;
4182;SDS011;2105;52.300;9.182;2024-01-15T01:20:12;17.33;;;9.73;;
4182;SDS011;2105;52.300;9.182;2024-01-15T01:22:40;21.77;;;9.77;;
4182;SDS011;2105;52.300;9.182;2024-01-15T01:25:07;23.07;;;10.93;;
4182;SDS011;2105;52.300;9.182;2024-01-15T01:27:34;17.43;;;10.00;;
4182;SDS011;2105;52.300;9.182;2024-01-15T01:30:01;14.93;;;10.53;;
4182;SDS011;2105;52.300;9.182;2024-01-15T01:32:30;19.57;;;10.67;;
4182;SDS011;2105;52.300;9.182;2024-01-15T01:34:57;18.23;;;10.00;;
4182;SDS011;2105;52.300;9.182;2024-01-15T01:37:24;20.83;;;10.40;;
4182;SDS011;2105;52.300;9.182;2024-01-15T01:39:50;20.07;;;10.53;;
4182;SDS011;2105;52.300;9.182;2024-01-15T01:42:17;19.97;;;10.60;;
4182;SDS011;2105;52.300;9.182;2024-01-15T01:44:44;18.90;;;9.77;;
4182;SDS011;2105;52.300;9.182;2024-01-15T01:47:11;13.50;;;9.00;;
4182;SDS011;2105;52.300;9.182;2024-01-15T01:49:40;16.07;;;8.83;;
4182;SDS011;2105;52.300;9.182;2024-01-15T01:52:08;14.83;;;7.70;;
4182;SDS011;2105;52.300;9.182;2024-01-15T01:54:36;17.20;;;6.90;;
4182;SDS011;2105;52.300;9.182;2024-01-15T01:57:04;14.63;;;7.90;;
4182;SDS011;2105;52.300;9.182;2024-01-15T01:59:32;14.10;;;7.57;;
4182;SDS011;2105;52.300;9.182;2024-01-15T02:02:00;15.50;;;7.50;;
4182;SDS011;2105;52.300;9.182;2024-01-15T02:04:29;12.67;;;7.00;;
4182;SDS011;2105;52.300;9.182;2024-01-15T02:07:00;18.60;;;7.33;;
4182;SDS011;2105;52.300;9.182;2024-01-15T02:09:26;24.20;;;7.10;;
4182;SDS011;2105;52.300;9.182;2024-01-15T02:11:53;21.10;;;7.87;;
4182;SDS011;2105;52.300;9.182;2024-01-15T02:14:20;14.93;;;7.00;;
4182;SDS011;2105;52.300;9.182;2024-01-15T02:16:47;18.47;;;6.83;;
4182;SDS011;2105;52.300;9.182;2024-01-15T02:19:14;13.73;;;7.20;;
4182;SDS011;2105;52.300;9.182;2024-01-15T02:21:42;22.53;;;7.00;;
4182;SDS011;2105;52.300;9.182;2024-01-15T02:41:00;18.17;;;7.07;;
4182;SDS011;2105;52.300;9.182;2024-01-15T02:43:27;20.73;;;6.27;;
4182;SDS011;2105;52.300;9.182;2024-01-15T02:45:53;19.23;;;7.23;;
4182;SDS011;2105;52.300;9.182;2024-01-15T02:48:20;17.67;;;6.27;;
4182;SDS011;2105;52.300;9.182;2024-01-15T02:50:46;8.87;;;5.70;;
4182;SDS011;2105;52.300;9.182;2024-01-15T02:53:13;18.40;;;6.63;;
4182;SDS011;2105;52.300;9.182;2024-01-15T02:55:40;15.90;;;7.37;;
4182;SDS011;2105;52.300;9.182;2024-01-15T02:58:08;11.03;;;6.40;;
4182;SDS011;2105;52.300;9.182;2024-01-15T03:00:35;15.70;;;7.13;;
4182;SDS011;2105;52.300;9.182;2024-01-15T03:03:01;16.13;;;6.30;;
4182;SDS011;2105;52.300;9.182;2024-01-15T03:05:28;18.60;;;6.67;;
4182;SDS011;2105;52.300;9.182;2024-01-15T03:07:55;12.97;;;6.13;;
4182;SDS011;2105;52.300;9.182;2024-01-15T03:10:21;12.13;;;7.13;;
4182;SDS011;2105;52.300;9.182;2024-01-15T03:12:48;22.83;;;7.07;;
4182;SDS011;2105;52.300;9.182;2024-01-15T03:15:16;19.80;;;7.70;;
4182;SDS011;2105;52.300;9.182;2024-01-15T03:17:43;12.33;;;7.10;;
4182;SDS011;2105;52.300;9.182;2024-01-15T03:20:10;17.87;;;7.70;;
4182;SDS011;2105;52.300;9.182;2024-01-15T03:22:37;14.43;;;7.30;;
4182;SDS011;2105;52.300;9.182;2024-01-15T03:25:06;17.27;;;6.77;;
4182;SDS011;2105;52.300;9.182;2024-01-15T03:27:33;15.60;;;7.23;;
4182;SDS011;2105;52.300;9.182;2024-01-15T03:30:00;15.17;;;7.53;;
4182;SDS011;2105;52.300;9.182;2024-01-15T03:32:28;23.50;;;7.10;;
4182;SDS011;2105;52.300;9.182;2024-01-15T03:34:55;12.03;;;7.23;;
4182;SDS011;2105;52.300;9.182;2024-01-15T03:37:22;18.87;;;7.53;;
4182;SDS011;2105;52.300;9.182;2024-01-15T03:39:48;14.87;;;7.10;;
4182;SDS011;2105;52.300;9.182;2024-01-15T03:42:15;16.77;;;7.30;;
4182;SDS011;2105;52.300;9.182;2024-01-15T03:44:42;10.67;;;7.10;;
4182;SDS011;2105;52.300;9.182;2024-01-15T03:47:08;17.30;;;7.20;;
4182;SDS011;2105;52.300;9.182;2024-01-15T03:49:36;22.77;;;7.80;;
4182;SDS011;2105;52.300;9.182;2024-01-15T03:52:03;24.63;;;7.20;;
4182;SDS011;2105;52.300;9.182;2024-01-15T03:54:30;15.47;;;7.20;;
4182;SDS011;2105;52.300;9.182;2024-01-15T03:56:57;17.00;;;6.80;;
4182;SDS011;2105;52.300;9.182;2024-01-15T03:59:23;20.27;;;7.13;;
4182;SDS011;2105;52.300;9.182;2024-01-15T04:01:50;13.33;;;6.57;;
4182;SDS011;2105;52.300;9.182;2024-01-15T04:04:17;14.00;;;7.00;;
4182;SDS011;2105;52.300;9.182;2024-01-15T04:13:30;9.00;;;6.10;;
4182;SDS011;2105;52.300;9.182;2024-01-15T04:15:58;9.73;;;5.77;;
4182;SDS011;2105;52.300;9.182;2024-01-15T04:18:26;12.20;;;6.67;;
4182;SDS011;2105;52.300;9.182;2024-01-15T04:20:53;12.93;;;6.33;;
4182;SDS011;2105;52.300;9.182;2024-01-15T04:23:19;16.77;;;6.60;;
4182;SDS011;2105;52.300;9.182;2024-01-15T04:25:46;17.70;;;6.57;;
4182;SDS011;2105;52.300;9.182;2024-01-15T04:28:12;13.67;;;6.43;;
4182;SDS011;2105;52.300;9.182;2024-01-15T04:30:40;12.23;;;6.20;;
4182;SDS011;2105;52.300;9.182;2024-01-15T04:33:07;19.73;;;6.40;;
4182;SDS011;2105;52.300;9.182;2024-01-15T04:35:34;20.97;;;5.80;;
4182;SDS011;2105;52.300;9.182;2024-01-15T04:38:00;12.80;;;6.40;;
4182;SDS011;2105;52.300;9.182;2024-01-15T04:40:27;10.33;;;6.27;;
4182;SDS011;2105;52.300;9.182;2024-01-15T04:42:54;19.10;;;6.97;;
4182;SDS011;2105;52.300;9.182;2024-01-15T04:45:20;10.23;;;5.50;;
4182;SDS011;2105;52.300;9.182;2024-01-15T04:47:54;10.53;;;5.50;;
4182;SDS011;2105;52.300;9.182;2024-01-15T04:50:21;13.73;;;6.40;;
4182;SDS011;2105;52.300;9.182;2024-01-15T04:52:49;16.43;;;6.63;;
4182;SDS011;2105;52.300;9.182;2024-01-15T04:55:16;13.90;;;5.83;;
4182;SDS011;2105;52.300;9.182;2024-01-15T04:57:42;16.60;;;5.73;;
4182;SDS011;2105;52.300;9.182;2024-01-15T05:00:09;16.00;;;6.40;;
4182;SDS011;2105;52.300;9.182;2024-01-15T05:02:38;10.37;;;6.23;;
4182;SDS011;2105;52.300;9.182;2024-01-15T05:05:06;13.70;;;7.57;;
4182;SDS011;2105;52.300;9.182;2024-01-15T05:07:32;14.30;;;6.50;;
4182;SDS011;2105;52.300;9.182;2024-01-15T05:09:59;13.70;;;6.50;;
4182;SDS011;2105;52.300;9.182;2024-01-15T05:12:26;12.00;;;6.40;;
4182;SDS011;2105;52.300;9.182;2024-01-15T05:14:52;12.50;;;6.53;;
4182;SDS011;2105;52.300;9.182;2024-01-15T05:17:19;15.43;;;6.30;;
4182;SDS011;2105;52.300;9.182;2024-01-15T05:19:46;20.87;;;6.77;;
4182;SDS011;2105;52.300;9.182;2024-01-15T05:22:14;11.33;;;6.20;;
4182;SDS011;2105;52.300;9.182;2024-01-15T05:24:41;24.37;;;6.73;;
4182;SDS011;2105;52.300;9.182;2024-01-15T05:27:07;13.73;;;5.20;;
4182;SDS011;2105;52.300;9.182;2024-01-15T05:29:34;17.20;;;4.70;;
4182;SDS011;2105;52.300;9.182;2024-01-15T05:32:01;14.17;;;4.50;;
4182;SDS011;2105;52.300;9.182;2024-01-15T05:34:27;23.73;;;5.23;;
4182;SDS011;2105;52.300;9.182;2024-01-15T05:36:54;21.07;;;4.90;;
4182;SDS011;2105;52.300;9.182;2024-01-15T05:39:22;11.60;;;4.70;;
4182;SDS011;2105;52.300;9.182;2024-01-15T05:41:48;20.87;;;5.70;;
4182;SDS011;2105;52.300;9.182;2024-01-15T05:44:15;10.63;;;4.23;;
4182;SDS011;2105;52.300;9.182;2024-01-15T05:46:42;10.67;;;4.20;;
4182;SDS011;2105;52.300;9.182;2024-01-15T05:49:08;17.83;;;4.30;;
4182;SDS011;2105;52.300;9.182;2024-01-15T05:51:35;12.73;;;4.30;;
4182;SDS011;2105;52.300;9.182;2024-01-15T05:54:02;11.20;;;5.10;;
4182;SDS011;2105;52.300;9.182;2024-01-15T05:56:30;17.30;;;4.53;;
4182;SDS011;2105;52.300;9.182;2024-01-15T05:58:57;17.60;;;4.70;;
4182;SDS011;2105;52.300;9.182;2024-01-15T06:01:23;6.50;;;4.10;;
4182;SDS011;2105;52.300;9.182;2024-01-15T06:03:50;16.40;;;5.40;;
4182;SDS011;2105;52.300;9.182;2024-01-15T06:06:18;16.33;;;4.40;;
4182;SDS011;2105;52.300;9.182;2024-01-15T06:08:45;15.67;;;5.60;;
4182;SDS011;2105;52.300;9.182;2024-01-15T06:11:11;17.63;;;4.77;;
4182;SDS011;2105;52.300;9.182;2024-01-15T06:13:39;20.03;;;5.57;;
4182;SDS011;2105;52.300;9.182;2024-01-15T06:16:11;7.70;;;4.67;;
4182;SDS011;2105;52.300;9.182;2024-01-15T06:18:39;13.40;;;5.80;;
4182;SDS011;2105;52.300;9.182;2024-01-15T06:21:06;19.63;;;5.77;;
4182;SDS011;2105;52.300;9.182;2024-01-15T06:23:32;13.70;;;6.60;;
4182;SDS011;2105;52.300;9.182;2024-01-15T06:25:59;14.77;;;5.80;;
4182;SDS011;2105;52.300;9.182;2024-01-15T06:28:28;18.53;;;6.37;;
4182;SDS011;2105;52.300;9.182;2024-01-15T06:30:56;7.70;;;6.07;;
4182;SDS011;2105;52.300;9.182;2024-01-15T06:33:24;11.60;;;6.07;;
4182;SDS011;2105;52.300;9.182;2024-01-15T06:35:50;10.40;;;6.03;;
4182;SDS011;2105;52.300;9.182;2024-01-15T06:38:17;20.50;;;7.07;;
4182;SDS011;2105;52.300;9.182;2024-01-15T06:40:44;12.03;;;6.70;;
4182;SDS011;2105;52.300;9.182;2024-01-15T06:43:13;12.53;;;6.17;;
4182;SDS011;2105;52.300;9.182;2024-01-15T06:45:40;13.67;;;6.73;;
4182;SDS011;2105;52.300;9.182;2024-01-15T06:48:08;15.20;;;6.27;;
4182;SDS011;2105;52.300;9.182;2024-01-15T06:50:37;11.10;;;5.63;;
4182;SDS011;2105;52.300;9.182;2024-01-15T06:53:04;12.63;;;5.60;;
4182;SDS011;2105;52.300;9.182;2024-01-15T06:55:31;13.60;;;5.60;;
4182;SDS011;2105;52.300;9.182;2024-01-15T06:57:57;16.17;;;6.77;;
4182;SDS011;2105;52.300;9.182;2024-01-15T07:00:24;14.43;;;5.23;;
4182;SDS011;2105;52.300;9.182;2024-01-15T07:02:52;16.10;;;6.30;;
4182;SDS011;2105;52.300;9.182;2024-01-15T07:05:21;21.83;;;6.23;;
4182;SDS011;2105;52.300;9.182;2024-01-15T07:07:47;12.20;;;5.60;;
4182;SDS011;2105;52.300;9.182;2024-01-15T07:10:17;12.23;;;6.00;;
4182;SDS011;2105;52.300;9.182;2024-01-15T07:12:44;9.20;;;6.40;;
4182;SDS011;2105;52.300;9.182;2024-01-15T07:15:11;9.90;;;6.07;;
4182;SDS011;2105;52.300;9.182;2024-01-15T07:17:38;15.73;;;7.27;;
4182;SDS011;2105;52.300;9.182;2024-01-15T07:20:05;15.97;;;7.70;;
4182;SDS011;2105;52.300;9.182;2024-01-15T07:22:35;13.53;;;6.83;;
4182;SDS011;2105;52.300;9.182;2024-01-15T07:25:02;18.50;;;7.53;;
4182;SDS011;2105;52.300;9.182;2024-01-15T07:27:29;11.83;;;7.70;;
4182;SDS011;2105;52.300;9.182;2024-01-15T07:29:59;13.97;;;7.57;;
4182;SDS011;2105;52.300;9.182;2024-01-15T07:32:26;12.70;;;7.20;;
4182;SDS011;2105;52.300;9.182;2024-01-15T07:34:53;9.13;;;7.37;;
4182;SDS011;2105;52.300;9.182;2024-01-15T07:37:19;13.57;;;7.20;;
4182;SDS011;2105;52.300;9.182;2024-01-15T07:39:49;15.83;;;7.20;;
4182;SDS011;2105;52.300;9.182;2024-01-15T07:42:16;7.90;;;7.10;;
4182;SDS011;2105;52.300;9.182;2024-01-15T07:44:43;14.23;;;7.63;;
4182;SDS011;2105;52.300;9.182;2024-01-15T07:47:12;11.27;;;7.60;;
4182;SDS011;2105;52.300;9.182;2024-01-15T07:49:39;9.80;;;7.07;;
4182;SDS011;2105;52.300;9.182;2024-01-15T07:52:06;10.10;;;7.10;;
4182;SDS011;2105;52.300;9.182;2024-01-15T07:54:33;13.27;;;7.67;;
4182;SDS011;2105;52.300;9.182;2024-01-15T07:57:01;8.30;;;7.40;;
4182;SDS011;2105;52.300;9.182;2024-01-15T07:59:29;14.20;;;7.90;;
4182;SDS011;2105;52.300;9.182;2024-01-15T08:01:56;14.33;;;7.77;;
4182;SDS011;2105;52.300;9.182;2024-01-15T08:04:24;13.17;;;7.63;;
4182;SDS011;2105;52.300;9.182;2024-01-15T08:06:53;9.00;;;7.30;;
4182;SDS011;2105;52.300;9.182;2024-01-15T08:09:20;17.13;;;7.00;;
4182;SDS011;2105;52.300;9.182;2024-01-15T08:11:46;14.23;;;6.43;;
4182;SDS011;2105;52.300;9.182;2024-01-15T08:14:15;10.70;;;6.67;;
4182;SDS011;2105;52.300;9.182;2024-01-15T08:16:42;8.13;;;6.13;;
4182;SDS011;2105;52.300;9.182;2024-01-15T08:19:11;7.77;;;6.33;;
4182;SDS011;2105;52.300;9.182;2024-01-15T08:21:39;8.77;;;6.77;;
4182;SDS011;2105;52.300;9.182;2024-01-15T08:24:06;10.53;;;6.93;;
4182;SDS011;2105;52.300;9.182;2024-01-15T08:26:33;11.53;;;6.17;;
4182;SDS011;2105;52.300;9.182;2024-01-15T08:29:00;7.83;;;6.73;;
4182;SDS011;2105;52.300;9.182;2024-01-15T08:31:28;8.13;;;7.23;;
4182;SDS011;2105;52.300;9.182;2024-01-15T08:33:55;13.03;;;7.00;;
4182;SDS011;2105;52.300;9.182;2024-01-15T08:36:22;8.93;;;7.40;;
4182;SDS011;2105;52.300;9.182;2024-01-15T08:38:50;12.40;;;7.20;;
4182;SDS011;2105;52.300;9.182;2024-01-15T08:41:17;9.57;;;6.90;;
4182;SDS011;2105;52.300;9.182;2024-01-15T08:43:43;8.47;;;6.43;;
4182;SDS011;2105;52.300;9.182;2024-01-15T08:46:10;11.67;;;6.87;;
4182;SDS011;2105;52.300;9.182;2024-01-15T08:48:38;19.27;;;8.20;;
4182;SDS011;2105;52.300;9.182;2024-01-15T08:51:07;9.50;;;6.90;;
4182;SDS011;2105;52.300;9.182;2024-01-15T08:53:34;16.30;;;8.03;;
4182;SDS011;2105;52.300;9.182;2024-01-15T08:56:00;15.00;;;8.17;;
4182;SDS011;2105;52.300;9.182;2024-01-15T08:58:29;15.03;;;7.30;;
4182;SDS011;2105;52.300;9.182;2024-01-15T09:00:58;18.47;;;7.57;;
4182;SDS011;2105;52.300;9.182;2024-01-15T09:03:25;13.77;;;8.27;;
4182;SDS011;2105;52.300;9.182;2024-01-15T09:05:54;20.93;;;8.10;;
4182;SDS011;2105;52.300;9.182;2024-01-15T09:08:21;12.80;;;7.37;;
4182;SDS011;2105;52.300;9.182;2024-01-15T09:10:48;13.30;;;6.97;;
4182;SDS011;2105;52.300;9.182;2024-01-15T09:13:15;11.57;;;7.40;;
4182;SDS011;2105;52.300;9.182;2024-01-15T09:15:43;13.20;;;7.43;;
4182;SDS011;2105;52.300;9.182;2024-01-15T09:18:10;11.50;;;7.30;;
4182;SDS011;2105;52.300;9.182;2024-01-15T09:20:39;17.23;;;7.40;;
4182;SDS011;2105;52.300;9.182;2024-01-15T09:23:07;13.03;;;7.40;;
4182;SDS011;2105;52.300;9.182;2024-01-15T09:25:40;17.00;;;7.03;;
4182;SDS011;2105;52.300;9.182;2024-01-15T09:28:12;12.17;;;7.27;;
4182;SDS011;2105;52.300;9.182;2024-01-15T09:30:56;7.47;;;6.17;;
4182;SDS011;2105;52.300;9.182;2024-01-15T09:39:25;6.80;;;5.80;;
4182;SDS011;2105;52.300;9.182;2024-01-15T09:41:56;8.90;;;5.77;;
4182;SDS011;2105;52.300;9.182;2024-01-15T09:44:30;8.07;;;5.50;;
4182;SDS011;2105;52.300;9.182;2024-01-15T09:47:03;10.53;;;5.77;;
4182;SDS011;2105;52.300;9.182;2024-01-15T09:49:34;13.07;;;6.10;;
4182;SDS011;2105;52.300;9.182;2024-01-15T09:52:05;7.80;;;7.00;;
4182;SDS011;2105;52.300;9.182;2024-01-15T09:54:35;13.70;;;6.17;;
4182;SDS011;2105;52.300;9.182;2024-01-15T09:57:11;6.57;;;5.63;;
4182;SDS011;2105;52.300;9.182;2024-01-15T09:59:38;12.50;;;6.63;;
4182;SDS011;2105;52.300;9.182;2024-01-15T10:02:08;6.27;;;5.67;;
4182;SDS011;2105;52.300;9.182;2024-01-15T10:04:38;12.27;;;5.90;;
4182;SDS011;2105;52.300;9.182;2024-01-15T10:07:06;7.43;;;5.80;;
4182;SDS011;2105;52.300;9.182;2024-01-15T10:09:36;6.50;;;5.60;;
4182;SDS011;2105;52.300;9.182;2024-01-15T10:12:03;9.50;;;5.80;;
4182;SDS011;2105;52.300;9.182;2024-01-15T10:14:30;6.73;;;5.03;;
4182;SDS011;2105;52.300;9.182;2024-01-15T10:16:57;6.70;;;5.43;;
4182;SDS011;2105;52.300;9.182;2024-01-15T10:19:24;5.70;;;5.20;;
4182;SDS011;2105;52.300;9.182;2024-01-15T10:21:50;15.57;;;5.93;;
4182;SDS011;2105;52.300;9.182;2024-01-15T10:24:17;6.37;;;5.67;;
4182;SDS011;2105;52.300;9.182;2024-01-15T10:26:45;7.97;;;5.50;;
4182;SDS011;2105;52.300;9.182;2024-01-15T10:29:12;6.67;;;5.90;;
4182;SDS011;2105;52.300;9.182;2024-01-15T10:31:41;7.80;;;5.93;;
4182;SDS011;2105;52.300;9.182;2024-01-15T10:34:11;10.30;;;7.00;;
4182;SDS011;2105;52.300;9.182;2024-01-15T10:36:41;6.27;;;5.70;;
4182;SDS011;2105;52.300;9.182;2024-01-15T10:39:13;9.93;;;7.33;;
4182;SDS011;2105;52.300;9.182;2024-01-15T10:41:39;8.60;;;6.43;;
4182;SDS011;2105;52.300;9.182;2024-01-15T10:47:30;10.00;;;6.30;;
4182;SDS011;2105;52.300;9.182;2024-01-15T10:49:57;8.80;;;6.10;;
4182;SDS011;2105;52.300;9.182;2024-01-15T10:52:25;10.23;;;6.37;;
4182;SDS011;2105;52.300;9.182;2024-01-15T10:54:54;11.37;;;7.53;;
4182;SDS011;2105;52.300;9.182;2024-01-15T10:57:21;9.80;;;7.10;;
4182;SDS011;2105;52.300;9.182;2024-01-15T10:59:49;17.47;;;6.80;;
4182;SDS011;2105;52.300;9.182;2024-01-15T11:02:15;11.57;;;8.50;;
4182;SDS011;2105;52.300;9.182;2024-01-15T11:07:38;13.17;;;7.93;;
4182;SDS011;2105;52.300;9.182;2024-01-15T11:10:06;12.83;;;7.37;;
4182;SDS011;2105;52.300;9.182;2024-01-15T11:12:35;10.83;;;7.47;;
4182;SDS011;2105;52.300;9.182;2024-01-15T11:15:02;13.57;;;7.70;;
4182;SDS011;2105;52.300;9.182;2024-01-15T11:23:03;13.50;;;8.50;;
4182;SDS011;2105;52.300;9.182;2024-01-15T11:25:34;11.73;;;8.83;;
4182;SDS011;2105;52.300;9.182;2024-01-15T11:28:03;12.07;;;7.17;;
4182;SDS011;2105;52.300;9.182;2024-01-15T11:30:30;12.70;;;7.10;;
4182;SDS011;2105;52.300;9.182;2024-01-15T11:33:01;19.77;;;7.77;;
4182;SDS011;2105;52.300;9.182;2024-01-15T11:38:26;17.73;;;7.30;;
4182;SDS011;2105;52.300;9.182;2024-01-15T11:40:54;10.80;;;7.20;;
4182;SDS011;2105;52.300;9.182;2024-01-15T11:43:21;14.33;;;8.07;;
4182;SDS011;2105;52.300;9.182;2024-01-15T11:45:49;15.43;;;8.30;;
4182;SDS011;2105;52.300;9.182;2024-01-15T11:48:19;11.87;;;8.27;;
4182;SDS011;2105;52.300;9.182;2024-01-15T11:50:50;13.40;;;9.03;;
4182;SDS011;2105;52.300;9.182;2024-01-15T11:53:20;14.87;;;8.17;;
4182;SDS011;2105;52.300;9.182;2024-01-15T11:55:53;14.83;;;9.70;;
4182;SDS011;2105;52.300;9.182;2024-01-15T11:58:24;18.60;;;9.30;;
4182;SDS011;2105;52.300;9.182;2024-01-15T12:00:51;16.87;;;9.10;;
4182;SDS011;2105;52.300;9.182;2024-01-15T12:03:20;17.23;;;9.10;;
4182;SDS011;2105;52.300;9.182;2024-01-15T12:05:47;16.37;;;8.73;;
4182;SDS011;2105;52.300;9.182;2024-01-15T12:08:15;12.33;;;8.90;;
4182;SDS011;2105;52.300;9.182;2024-01-15T12:10:47;11.80;;;10.10;;
4182;SDS011;2105;52.300;9.182;2024-01-15T12:13:14;11.07;;;8.50;;
4182;SDS011;2105;52.300;9.182;2024-01-15T12:15:43;12.90;;;9.10;;
4182;SDS011;2105;52.300;9.182;2024-01-15T12:18:11;11.47;;;9.93;;
4182;SDS011;2105;52.300;9.182;2024-01-15T12:20:39;16.73;;;9.80;;
4182;SDS011;2105;52.300;9.182;2024-01-15T12:23:07;10.63;;;9.30;;
4182;SDS011;2105;52.300;9.182;2024-01-15T12:25:36;12.73;;;10.17;;
4182;SDS011;2105;52.300;9.182;2024-01-15T12:28:03;12.50;;;9.07;;
4182;SDS011;2105;52.300;9.182;2024-01-15T12:30:32;16.13;;;9.83;;
4182;SDS011;2105;52.300;9.182;2024-01-15T12:33:01;15.80;;;9.30;;
4182;SDS011;2105;52.300;9.182;2024-01-15T12:35:29;12.30;;;9.20;;
4182;SDS011;2105;52.300;9.182;2024-01-15T12:37:56;10.53;;;9.33;;
4182;SDS011;2105;52.300;9.182;2024-01-15T12:40:23;12.33;;;9.40;;
4182;SDS011;2105;52.300;9.182;2024-01-15T12:42:54;13.93;;;9.67;;
4182;SDS011;2105;52.300;9.182;2024-01-15T12:45:21;10.77;;;8.97;;
4182;SDS011;2105;52.300;9.182;2024-01-15T12:47:48;14.63;;;9.70;;
4182;SDS011;2105;52.300;9.182;2024-01-15T12:50:16;13.40;;;9.03;;
4182;SDS011;2105;52.300;9.182;2024-01-15T12:52:42;19.00;;;9.80;;
4182;SDS011;2105;52.300;9.182;2024-01-15T12:55:09;15.03;;;9.03;;
4182;SDS011;2105;52.300;9.182;2024-01-15T12:57:37;18.90;;;9.30;;
4182;SDS011;2105;52.300;9.182;2024-01-15T13:00:06;12.30;;;9.03;;
4182;SDS011;2105;52.300;9.182;2024-01-15T13:02:37;12.13;;;9.33;;
4182;SDS011;2105;52.300;9.182;2024-01-15T13:05:04;13.43;;;9.80;;
4182;SDS011;2105;52.300;9.182;2024-01-15T13:07:32;13.00;;;10.33;;
4182;SDS011;2105;52.300;9.182;2024-01-15T13:09:59;11.00;;;9.90;;
4182;SDS011;2105;52.300;9.182;2024-01-15T13:12:25;13.40;;;9.80;;
4182;SDS011;2105;52.300;9.182;2024-01-15T13:14:54;13.73;;;10.53;;
4182;SDS011;2105;52.300;9.182;2024-01-15T13:17:22;14.93;;;9.70;;
4182;SDS011;2105;52.300;9.182;2024-01-15T13:19:49;10.73;;;9.60;;
4182;SDS011;2105;52.300;9.182;2024-01-15T13:22:16;9.87;;;8.87;;
4182;SDS011;2105;52.300;9.182;2024-01-15T13:24:43;11.53;;;9.00;;
4182;SDS011;2105;52.300;9.182;2024-01-15T13:27:09;14.97;;;10.00;;
4182;SDS011;2105;52.300;9.182;2024-01-15T13:29:36;10.97;;;9.83;;
4182;SDS011;2105;52.300;9.182;2024-01-15T13:32:03;10.50;;;9.40;;
4182;SDS011;2105;52.300;9.182;2024-01-15T13:34:32;15.13;;;10.60;;
4182;SDS011;2105;52.300;9.182;2024-01-15T13:37:00;11.33;;;10.23;;
4182;SDS011;2105;52.300;9.182;2024-01-15T13:39:28;11.37;;;10.20;;
4182;SDS011;2105;52.300;9.182;2024-01-15T13:41:58;11.60;;;9.70;;
4182;SDS011;2105;52.300;9.182;2024-01-15T13:44:36;15.90;;;10.57;;
4182;SDS011;2105;52.300;9.182;2024-01-15T13:47:03;11.13;;;9.77;;
4182;SDS011;2105;52.300;9.182;2024-01-15T13:49:32;12.30;;;9.10;;
4182;SDS011;2105;52.300;9.182;2024-01-15T13:52:00;16.70;;;9.50;;
4182;SDS011;2105;52.300;9.182;2024-01-15T13:54:28;15.27;;;9.47;;
4182;SDS011;2105;52.300;9.182;2024-01-15T13:56:56;11.20;;;9.50;;
4182;SDS011;2105;52.300;9.182;2024-01-15T13:59:24;11.10;;;9.40;;
4182;SDS011;2105;52.300;9.182;2024-01-15T14:01:50;9.37;;;8.57;;
4182;SDS011;2105;52.300;9.182;2024-01-15T14:04:17;9.70;;;8.80;;
4182;SDS011;2105;52.300;9.182;2024-01-15T14:06:46;11.60;;;8.90;;
4182;SDS011;2105;52.300;9.182;2024-01-15T14:09:13;9.03;;;7.80;;
4182;SDS011;2105;52.300;9.182;2024-01-15T14:11:40;8.30;;;7.60;;
4182;SDS011;2105;52.300;9.182;2024-01-15T14:14:06;14.13;;;7.27;;
4182;SDS011;2105;52.300;9.182;2024-01-15T14:16:34;8.17;;;7.30;;
4182;SDS011;2105;52.300;9.182;2024-01-15T14:19:01;11.90;;;6.97;;
4182;SDS011;2105;52.300;9.182;2024-01-15T14:21:28;8.67;;;6.30;;
4182;SDS011;2105;52.300;9.182;2024-01-15T14:23:56;14.50;;;7.20;;
4182;SDS011;2105;52.300;9.182;2024-01-15T14:26:23;15.63;;;6.30;;
4182;SDS011;2105;52.300;9.182;2024-01-15T14:28:50;11.33;;;5.90;;
4182;SDS011;2105;52.300;9.182;2024-01-15T14:31:17;12.43;;;5.80;;
4182;SDS011;2105;52.300;9.182;2024-01-15T14:33:45;7.80;;;5.80;;
4182;SDS011;2105;52.300;9.182;2024-01-15T14:36:12;10.87;;;6.10;;
4182;SDS011;2105;52.300;9.182;2024-01-15T14:38:38;11.27;;;6.30;;
4182;SDS011;2105;52.300;9.182;2024-01-15T14:41:08;9.23;;;5.60;;
4182;SDS011;2105;52.300;9.182;2024-01-15T14:43:35;15.23;;;6.10;;
4182;SDS011;2105;52.300;9.182;2024-01-15T14:46:01;6.40;;;5.47;;
4182;SDS011;2105;52.300;9.182;2024-01-15T14:48:30;7.17;;;5.50;;
4182;SDS011;2105;52.300;9.182;2024-01-15T14:51:01;10.23;;;6.43;;
4182;SDS011;2105;52.300;9.182;2024-01-15T14:54:01;8.17;;;5.30;;
4182;SDS011;2105;52.300;9.182;2024-01-15T14:56:47;10.53;;;5.13;;
4182;SDS011;2105;52.300;9.182;2024-01-15T14:59:36;7.23;;;5.10;;
4182;SDS011;2105;52.300;9.182;2024-01-15T15:02:02;9.83;;;5.27;;
4182;SDS011;2105;52.300;9.182;2024-01-15T15:04:31;7.40;;;4.90;;
4182;SDS011;2105;52.300;9.182;2024-01-15T15:07:16;6.07;;;4.17;;
4182;SDS011;2105;52.300;9.182;2024-01-15T15:09:47;11.07;;;4.93;;
4182;SDS011;2105;52.300;9.182;2024-01-15T15:12:29;5.53;;;5.03;;
4182;SDS011;2105;52.300;9.182;2024-01-15T15:15:12;7.57;;;5.00;;
4182;SDS011;2105;52.300;9.182;2024-01-15T15:31:07;7.07;;;3.47;;
4182;SDS011;2105;52.300;9.182;2024-01-15T15:49:13;3.70;;;2.97;;
4182;SDS011;2105;52.300;9.182;2024-01-15T15:51:40;3.67;;;3.23;;
4182;SDS011;2105;52.300;9.182;2024-01-15T15:54:07;34.40;;;23.07;;
4182;SDS011;2105;52.300;9.182;2024-01-15T15:56:33;5.60;;;3.53;;
4182;SDS011;2105;52.300;9.182;2024-01-15T15:59:03;4.90;;;3.23;;
4182;SDS011;2105;52.300;9.182;2024-01-15T16:01:30;5.17;;;3.10;;
4182;SDS011;2105;52.300;9.182;2024-01-15T16:03:57;3.50;;;2.60;;
4182;SDS011;2105;52.300;9.182;2024-01-15T16:06:25;10.50;;;3.50;;
4182;SDS011;2105;52.300;9.182;2024-01-15T16:08:52;3.23;;;2.93;;
4182;SDS011;2105;52.300;9.182;2024-01-15T16:11:19;4.37;;;3.20;;
4182;SDS011;2105;52.300;9.182;2024-01-15T16:13:46;2.90;;;2.67;;
4182;SDS011;2105;52.300;9.182;2024-01-15T16:16:13;2.90;;;2.70;;
4182;SDS011;2105;52.300;9.182;2024-01-15T16:18:39;6.83;;;2.70;;
4182;SDS011;2105;52.300;9.182;2024-01-15T16:21:06;7.37;;;3.50;;